Time;durP1;ratioP1;P1;durP2;ratioP2;P2;SDS_P1;SDS_P2;PMS_P1;PMS_P2;Temp;Humidity;BMP_temperature;BMP_pressure;BME280_temperature;BME280_humidity;BME280_pressure;Samples;Min_cycle;Max_cycle;Signal;HPM_P1;HPM_P2
2022/03/12 00:00:26;;;;;;;62.50;9.75;;;;;;;;;;5006299;28;20515;-32
2022/03/12 00:02:54;;;;;;;60.95;9.30;;;;;;;;;;5010622;28;20046;-35
2022/03/12 00:05:21;;;;;;;80.57;10.70;;;;;;;;;;5011907;28;20037;-38
2022/03/12 00:07:51;;;;;;;71.30;9.68;;;;;;;;;;5007231;28;20030;-34
2022/03/12 00:10:21;;;;;;;69.90;10.40;;;;;;;;;;4991822;28;20060;-36
2022/03/12 00:12:49;;;;;;;65.85;11.00;;;;;;;;;;5010684;28;20117;-37
2022/03/12 00:15:16;;;;;;;62.15;10.52;;;;;;;;;;5009517;28;20408;-38
2022/03/12 00:17:45;;;;;;;81.78;13.18;;;;;;;;;;5011323;28;20057;-38
2022/03/12 00:20:16;;;;;;;118.47;21.08;;;;;;;;;;5007403;28;20041;-36
2022/03/12 00:22:51;;;;;;;86.32;14.93;;;;;;;;;;5000215;28;20087;-37
2022/03/12 00:25:22;;;;;;;78.60;15.07;;;;;;;;;;4990870;28;20051;-38
2022/03/12 00:27:50;;;;;;;74.50;16.15;;;;;;;;;;4992939;28;20033;-40
2022/03/12 00:30:19;;;;;;;87.65;16.25;;;;;;;;;;4994740;28;20034;-37
2022/03/12 00:32:47;;;;;;;73.38;14.93;;;;;;;;;;5011227;28;20073;-38
2022/03/12 00:35:16;;;;;;;93.25;16.15;;;;;;;;;;5008452;28;20034;-38
2022/03/12 00:37:43;;;;;;;89.25;16.25;;;;;;;;;;5010352;28;20061;-37
2022/03/12 00:40:10;;;;;;;85.57;14.52;;;;;;;;;;5011310;28;20519;-38
2022/03/12 00:42:37;;;;;;;88.13;15.93;;;;;;;;;;5010752;28;20040;-38
2022/03/12 00:45:04;;;;;;;83.07;16.85;;;;;;;;;;5010807;28;20044;-38
2022/03/12 00:47:31;;;;;;;85.10;16.30;;;;;;;;;;4993883;28;20038;-38
2022/03/12 00:49:58;;;;;;;81.95;15.45;;;;;;;;;;5010505;28;20418;-39
2022/03/12 00:52:25;;;;;;;82.63;16.30;;;;;;;;;;5011584;28;20034;-38
2022/03/12 00:54:52;;;;;;;99.97;17.08;;;;;;;;;;5011605;28;20077;-38
2022/03/12 00:57:19;;;;;;;88.78;18.05;;;;;;;;;;5010916;28;20033;-40
2022/03/12 00:59:46;;;;;;;100.45;18.55;;;;;;;;;;5011538;28;20029;-38
2022/03/12 01:02:15;;;;;;;87.45;17.65;;;;;;;;;;5011192;28;20472;-38
2022/03/12 01:04:42;;;;;;;84.18;17.10;;;;;;;;;;5012828;28;20037;-38
2022/03/12 01:07:13;;;;;;;91.70;16.77;;;;;;;;;;4994689;28;20046;-40
2022/03/12 01:09:40;;;;;;;78.85;17.88;;;;;;;;;;5011791;28;20061;-38
2022/03/12 01:12:08;;;;;;;80.72;19.23;;;;;;;;;;5008281;28;20037;-39
2022/03/12 01:14:38;;;;;;;83.38;19.65;;;;;;;;;;5010405;28;20480;-38
2022/03/12 01:17:06;;;;;;;80.22;18.25;;;;;;;;;;5010410;28;20480;-41
2022/03/12 01:19:37;;;;;;;86.32;18.13;;;;;;;;;;5010595;28;20483;-41
2022/03/12 01:22:04;;;;;;;72.65;18.50;;;;;;;;;;4993826;28;20037;-37
2022/03/12 01:24:33;;;;;;;78.25;19.70;;;;;;;;;;5010417;28;20069;-38
2022/03/12 01:27:00;;;;;;;81.68;19.30;;;;;;;;;;5011093;28;20030;-37
2022/03/12 01:29:27;;;;;;;64.97;19.20;;;;;;;;;;5010801;28;20030;-36
2022/03/12 01:31:54;;;;;;;67.03;19.05;;;;;;;;;;5011070;28;20072;-39
2022/03/12 01:34:21;;;;;;;71.25;17.50;;;;;;;;;;5005339;28;20380;-36
2022/03/12 01:36:48;;;;;;;60.47;18.45;;;;;;;;;;5001600;28;20101;-43
2022/03/12 01:39:15;;;;;;;69.90;16.90;;;;;;;;;;5004587;28;20057;-39
2022/03/12 01:41:43;;;;;;;66.68;17.33;;;;;;;;;;5004506;28;20019;-39
2022/03/12 01:44:13;;;;;;;66.28;19.17;;;;;;;;;;5000838;28;20038;-37
2022/03/12 01:46:43;;;;;;;66.00;18.17;;;;;;;;;;5001552;28;20388;-37
2022/03/12 01:49:16;;;;;;;85.97;18.88;;;;;;;;;;5002084;28;20096;-39
2022/03/12 01:51:44;;;;;;;74.15;17.73;;;;;;;;;;4997678;28;20052;-37
2022/03/12 01:54:13;;;;;;;64.10;16.00;;;;;;;;;;4998834;28;20184;-36
2022/03/12 01:56:41;;;;;;;70.65;15.57;;;;;;;;;;4983415;28;20034;-40
2022/03/12 01:59:08;;;;;;;61.85;16.17;;;;;;;;;;4985989;28;20032;-40
2022/03/12 02:01:35;;;;;;;60.22;15.82;;;;;;;;;;4995137;28;20489;-39
2022/03/12 02:04:04;;;;;;;65.25;15.52;;;;;;;;;;5000415;28;20030;-37
2022/03/12 02:06:31;;;;;;;53.88;14.75;;;;;;;;;;5003300;28;20038;-37
2022/03/12 02:08:58;;;;;;;53.25;14.45;;;;;;;;;;5002924;28;20499;-39
2022/03/12 02:11:29;;;;;;;48.08;14.90;;;;;;;;;;5002135;28;20030;-40
2022/03/12 02:14:12;;;;;;;49.40;13.93;;;;;;;;;;5000045;28;20364;-39
2022/03/12 02:16:48;;;;;;;56.55;13.98;;;;;;;;;;5003139;28;20026;-39
2022/03/12 02:19:17;;;;;;;52.15;14.15;;;;;;;;;;4996712;28;20033;-41
2022/03/12 02:22:02;;;;;;;40.92;13.20;;;;;;;;;;4998125;28;20034;-39
2022/03/12 02:24:30;;;;;;;44.05;13.35;;;;;;;;;;5002515;28;20038;-36
2022/03/12 02:26:59;;;;;;;48.03;13.05;;;;;;;;;;5001744;28;20035;-35
2022/03/12 02:29:26;;;;;;;45.65;12.65;;;;;;;;;;5003832;28;20022;-34
2022/03/12 02:31:56;;;;;;;50.55;12.70;;;;;;;;;;5001306;28;20058;-38
2022/03/12 02:34:32;;;;;;;41.97;11.63;;;;;;;;;;5002056;28;20037;-37
2022/03/12 02:36:59;;;;;;;36.67;11.60;;;;;;;;;;5004194;28;20716;-36
2022/03/12 02:39:27;;;;;;;35.78;11.93;;;;;;;;;;5003853;28;20037;-35
2022/03/12 02:41:57;;;;;;;31.63;11.27;;;;;;;;;;5001277;28;20033;-37
2022/03/12 02:44:25;;;;;;;38.58;11.65;;;;;;;;;;4998842;28;20406;-38
2022/03/12 02:47:11;;;;;;;38.28;11.32;;;;;;;;;;5002278;28;20037;-38
2022/03/12 02:49:39;;;;;;;48.28;12.68;;;;;;;;;;4999659;28;20030;-38
2022/03/12 02:52:06;;;;;;;38.83;11.15;;;;;;;;;;4999040;28;20022;-37
2022/03/12 02:54:34;;;;;;;43.67;11.57;;;;;;;;;;4994132;28;20022;-37
2022/03/12 02:57:02;;;;;;;32.53;10.93;;;;;;;;;;4993681;28;20045;-38
2022/03/12 02:59:29;;;;;;;45.45;12.02;;;;;;;;;;5002961;28;20034;-37
2022/03/12 03:01:59;;;;;;;49.90;11.25;;;;;;;;;;5003249;28;20026;-37
2022/03/12 03:04:26;;;;;;;39.38;10.68;;;;;;;;;;5004184;28;20411;-36
2022/03/12 03:06:53;;;;;;;43.75;9.77;;;;;;;;;;5003589;28;20044;-37
2022/03/12 03:09:20;;;;;;;35.42;10.60;;;;;;;;;;4997518;28;20037;-38
2022/03/12 03:11:47;;;;;;;36.63;10.55;;;;;;;;;;4994592;28;20034;-38
2022/03/12 03:14:21;;;;;;;42.33;10.90;;;;;;;;;;4994066;28;20038;-38
2022/03/12 03:16:50;;;;;;;36.03;10.20;;;;;;;;;;4994006;28;20043;-37
2022/03/12 03:19:18;;;;;;;29.58;9.50;;;;;;;;;;4994222;28;20034;-38
2022/03/12 03:21:45;;;;;;;37.30;10.23;;;;;;;;;;4993858;28;20038;-38
2022/03/12 03:24:12;;;;;;;28.20;9.60;;;;;;;;;;4994220;28;20030;-38
2022/03/12 03:26:39;;;;;;;27.48;9.80;;;;;;;;;;4993972;28;20031;-38
2022/03/12 03:29:07;;;;;;;32.25;9.52;;;;;;;;;;4976341;28;20414;-38
2022/03/12 03:31:34;;;;;;;28.85;9.55;;;;;;;;;;4993557;28;20129;-38
2022/03/12 03:34:02;;;;;;;34.75;10.10;;;;;;;;;;4993934;28;20038;-38
2022/03/12 03:36:29;;;;;;;35.00;10.75;;;;;;;;;;4994261;28;20077;-37
2022/03/12 03:38:56;;;;;;;27.30;9.43;;;;;;;;;;4993978;28;20088;-38
2022/03/12 03:41:23;;;;;;;36.78;9.75;;;;;;;;;;4993723;28;20125;-39
2022/03/12 03:43:52;;;;;;;28.77;9.00;;;;;;;;;;4993850;28;20034;-37
2022/03/12 03:46:20;;;;;;;33.10;9.93;;;;;;;;;;4993527;28;20049;-37
2022/03/12 03:48:49;;;;;;;26.90;9.02;;;;;;;;;;4993541;28;20026;-38
2022/03/12 03:51:16;;;;;;;32.45;8.90;;;;;;;;;;4993928;28;20038;-37
2022/03/12 03:53:43;;;;;;;33.55;9.43;;;;;;;;;;4993215;28;20030;-38
2022/03/12 03:56:10;;;;;;;25.02;8.82;;;;;;;;;;4993672;28;20110;-38
2022/03/12 03:58:38;;;;;;;31.95;8.95;;;;;;;;;;4993407;28;20038;-38
2022/03/12 04:01:11;;;;;;;32.47;9.43;;;;;;;;;;4992521;28;20033;-38
2022/03/12 04:03:38;;;;;;;24.35;8.52;;;;;;;;;;4977051;28;20620;-38
2022/03/12 04:06:06;;;;;;;28.95;8.93;;;;;;;;;;4993077;28;20034;-37
2022/03/12 04:08:34;;;;;;;33.88;9.20;;;;;;;;;;4993749;28;20129;-38
2022/03/12 04:11:05;;;;;;;20.50;7.63;;;;;;;;;;4993110;28;20053;-37
2022/03/12 04:13:33;;;;;;;25.27;9.15;;;;;;;;;;4993240;28;20485;-36
2022/03/12 04:16:02;;;;;;;27.40;9.05;;;;;;;;;;4993598;28;20030;-36
2022/03/12 04:18:30;;;;;;;28.35;8.55;;;;;;;;;;4992468;28;20057;-36
2022/03/12 04:20:57;;;;;;;30.63;8.07;;;;;;;;;;4993245;28;20050;-37
2022/03/12 04:23:24;;;;;;;30.13;9.27;;;;;;;;;;4992717;28;20087;-37
2022/03/12 04:25:55;;;;;;;22.77;8.45;;;;;;;;;;4992944;28;20489;-37
2022/03/12 04:28:23;;;;;;;27.08;8.52;;;;;;;;;;4993266;28;20058;-38
2022/03/12 04:30:50;;;;;;;33.00;9.05;;;;;;;;;;4992121;28;20026;-37
2022/03/12 04:33:21;;;;;;;28.25;8.27;;;;;;;;;;4992793;28;20050;-37
2022/03/12 04:35:49;;;;;;;31.52;9.20;;;;;;;;;;4992534;28;20069;-37
2022/03/12 04:38:17;;;;;;;25.45;8.50;;;;;;;;;;4993219;28;20050;-36
2022/03/12 04:40:45;;;;;;;25.08;9.13;;;;;;;;;;4975069;28;20389;-36
2022/03/12 04:43:12;;;;;;;26.70;8.82;;;;;;;;;;4992603;28;20037;-37
2022/03/12 04:45:41;;;;;;;27.75;9.27;;;;;;;;;;4993070;28;20038;-36
2022/03/12 04:48:10;;;;;;;23.85;9.27;;;;;;;;;;4992234;28;20102;-37
2022/03/12 04:50:37;;;;;;;32.90;8.57;;;;;;;;;;4992662;28;20378;-36
2022/03/12 04:53:04;;;;;;;22.42;8.68;;;;;;;;;;4992546;28;20034;-37
2022/03/12 04:55:31;;;;;;;30.17;8.75;;;;;;;;;;4992791;28;20515;-36
2022/03/12 04:57:58;;;;;;;25.58;9.23;;;;;;;;;;4992577;28;20080;-36
2022/03/12 05:00:27;;;;;;;27.23;8.57;;;;;;;;;;4992240;28;20026;-36
2022/03/12 05:02:55;;;;;;;27.67;9.68;;;;;;;;;;4992681;28;20022;-36
2022/03/12 05:05:22;;;;;;;24.98;8.88;;;;;;;;;;4992466;28;20046;-36
2022/03/12 05:07:51;;;;;;;20.10;8.80;;;;;;;;;;4992232;28;20076;-36
2022/03/12 05:10:18;;;;;;;26.02;9.23;;;;;;;;;;4992221;28;20100;-36
2022/03/12 05:12:48;;;;;;;20.83;8.93;;;;;;;;;;4992198;28;20038;-37
2022/03/12 05:15:17;;;;;;;24.40;9.30;;;;;;;;;;4992849;28;20034;-37
2022/03/12 05:17:51;;;;;;;29.05;9.38;;;;;;;;;;4992190;28;20137;-36
2022/03/12 05:20:21;;;;;;;24.65;9.43;;;;;;;;;;4991982;28;20099;-36
2022/03/12 05:22:49;;;;;;;26.80;10.05;;;;;;;;;;4974714;28;20041;-37
2022/03/12 05:25:18;;;;;;;19.80;9.10;;;;;;;;;;4992167;28;20026;-36
2022/03/12 05:27:52;;;;;;;26.60;9.48;;;;;;;;;;4992427;28;20038;-37
2022/03/12 05:30:20;;;;;;;25.17;9.07;;;;;;;;;;4992418;28;20077;-37
2022/03/12 05:32:47;;;;;;;25.58;9.70;;;;;;;;;;4992312;28;20408;-37
2022/03/12 05:35:19;;;;;;;19.95;9.20;;;;;;;;;;4992222;28;20041;-36
2022/03/12 05:37:46;;;;;;;23.77;10.10;;;;;;;;;;4991910;28;20489;-36
2022/03/12 05:40:18;;;;;;;21.45;9.50;;;;;;;;;;4991974;28;20485;-36
2022/03/12 05:42:45;;;;;;;27.95;9.68;;;;;;;;;;4991991;28;20034;-36
2022/03/12 05:45:13;;;;;;;22.73;9.35;;;;;;;;;;4992304;28;20175;-36
2022/03/12 05:47:41;;;;;;;22.35;9.52;;;;;;;;;;4991867;28;20504;-36
2022/03/12 05:50:11;;;;;;;21.45;9.75;;;;;;;;;;4991769;28;20042;-36
2022/03/12 05:52:38;;;;;;;20.25;9.45;;;;;;;;;;4991963;28;20035;-36
2022/03/12 05:55:08;;;;;;;20.35;9.07;;;;;;;;;;4992297;28;20497;-36
2022/03/12 05:57:35;;;;;;;21.67;8.85;;;;;;;;;;4991866;28;20449;-37
2022/03/12 06:00:03;;;;;;;20.50;9.30;;;;;;;;;;4991901;28;20112;-37
2022/03/12 06:02:30;;;;;;;20.98;9.40;;;;;;;;;;4991779;28;20066;-37
2022/03/12 06:05:00;;;;;;;23.70;10.00;;;;;;;;;;4991958;28;20113;-37
2022/03/12 06:07:27;;;;;;;18.92;9.00;;;;;;;;;;4992035;28;20034;-36
2022/03/12 06:09:58;;;;;;;21.42;9.50;;;;;;;;;;4991858;28;20022;-37
2022/03/12 06:12:27;;;;;;;22.75;9.13;;;;;;;;;;4991992;28;20436;-37
2022/03/12 06:14:57;;;;;;;20.25;9.45;;;;;;;;;;4991530;28;20109;-37
2022/03/12 06:17:24;;;;;;;18.65;8.70;;;;;;;;;;4992038;28;20026;-37
2022/03/12 06:19:52;;;;;;;20.20;8.40;;;;;;;;;;4991908;28;20023;-37
2022/03/12 06:22:19;;;;;;;19.42;9.20;;;;;;;;;;4991579;28;20022;-37
2022/03/12 06:24:46;;;;;;;24.25;10.27;;;;;;;;;;4994875;28;20497;-37
2022/03/12 06:27:20;;;;;;;22.17;9.40;;;;;;;;;;4995158;28;20477;-37
2022/03/12 06:29:48;;;;;;;24.15;9.73;;;;;;;;;;4995054;28;20095;-37
2022/03/12 06:32:15;;;;;;;21.08;9.50;;;;;;;;;;4995192;28;20043;-37
2022/03/12 06:34:43;;;;;;;19.83;9.75;;;;;;;;;;4994954;28;20045;-38
2022/03/12 06:37:10;;;;;;;20.63;10.02;;;;;;;;;;4995195;28;20058;-38
2022/03/12 06:39:37;;;;;;;18.73;8.98;;;;;;;;;;4995019;28;20121;-38
2022/03/12 06:42:04;;;;;;;19.27;7.93;;;;;;;;;;4995110;28;20023;-37
2022/03/12 06:44:32;;;;;;;26.35;8.50;;;;;;;;;;4994713;28;20121;-38
2022/03/12 06:47:09;;;;;;;19.27;8.88;;;;;;;;;;4994640;28;20073;-37
2022/03/12 06:49:36;;;;;;;19.63;9.32;;;;;;;;;;4994547;28;20044;-37
2022/03/12 06:52:04;;;;;;;16.60;8.10;;;;;;;;;;4994748;28;20068;-38
2022/03/12 06:54:31;;;;;;;21.95;8.60;;;;;;;;;;4994989;28;20381;-38
2022/03/12 06:56:58;;;;;;;20.92;8.77;;;;;;;;;;4994421;28;20022;-38
2022/03/12 06:59:26;;;;;;;20.50;9.05;;;;;;;;;;4994654;28;20484;-38
2022/03/12 07:01:53;;;;;;;18.17;8.43;;;;;;;;;;4994454;28;20038;-38
2022/03/12 07:04:21;;;;;;;23.60;9.00;;;;;;;;;;4994351;28;20035;-38
2022/03/12 07:06:49;;;;;;;21.35;8.70;;;;;;;;;;4995117;28;20504;-37
2022/03/12 07:09:16;;;;;;;20.15;8.30;;;;;;;;;;4994326;28;20018;-38
2022/03/12 07:11:43;;;;;;;17.48;8.20;;;;;;;;;;4994664;28;20481;-37
2022/03/12 07:14:11;;;;;;;16.83;8.18;;;;;;;;;;4994406;28;20511;-38
2022/03/12 07:16:38;;;;;;;19.65;7.88;;;;;;;;;;4994384;28;20030;-37
2022/03/12 07:19:05;;;;;;;17.38;8.00;;;;;;;;;;4994510;28;20042;-37
2022/03/12 07:21:33;;;;;;;12.93;6.95;;;;;;;;;;4993892;28;20044;-37
2022/03/12 07:24:00;;;;;;;16.25;7.55;;;;;;;;;;4994332;28;20046;-37
2022/03/12 07:26:27;;;;;;;16.50;7.50;;;;;;;;;;4994410;28;20018;-37
2022/03/12 07:28:54;;;;;;;15.18;7.47;;;;;;;;;;4993879;28;20022;-37
2022/03/12 07:31:21;;;;;;;19.70;7.45;;;;;;;;;;4994462;28;20026;-39
2022/03/12 07:33:49;;;;;;;16.55;7.30;;;;;;;;;;4993577;28;20137;-37
2022/03/12 07:36:15;;;;;;;13.52;6.43;;;;;;;;;;4993257;28;20022;-37
2022/03/12 07:38:43;;;;;;;16.23;6.93;;;;;;;;;;4993706;28;20092;-38
2022/03/12 07:41:10;;;;;;;16.13;7.20;;;;;;;;;;4993913;28;20035;-38
2022/03/12 07:43:37;;;;;;;14.77;7.35;;;;;;;;;;4993437;28;20540;-38
2022/03/12 07:46:04;;;;;;;16.20;7.13;;;;;;;;;;4993861;28;20523;-38
2022/03/12 07:48:31;;;;;;;16.67;7.03;;;;;;;;;;4993963;28;20481;-38
2022/03/12 07:51:00;;;;;;;15.65;6.97;;;;;;;;;;4993255;28;20025;-37
2022/03/12 07:53:27;;;;;;;15.52;7.45;;;;;;;;;;4993951;28;20101;-38
2022/03/12 07:55:54;;;;;;;14.02;6.80;;;;;;;;;;4993204;28;20056;-38
2022/03/12 07:58:21;;;;;;;18.00;7.60;;;;;;;;;;4993788;28;20022;-38
2022/03/12 08:00:48;;;;;;;12.95;6.60;;;;;;;;;;4993423;28;20041;-37
2022/03/12 08:03:16;;;;;;;12.77;6.43;;;;;;;;;;4993066;28;20071;-37
2022/03/12 08:05:43;;;;;;;13.57;6.82;;;;;;;;;;4993615;28;20100;-37
2022/03/12 08:08:10;;;;;;;15.68;6.25;;;;;;;;;;4993086;28;20398;-37
2022/03/12 08:11:25;;;;;;;11.75;6.47;;;;;;;;;;4993418;28;20046;-39
2022/03/12 08:13:23;;;;;;;13.23;6.35;;;;;;;;;;4993085;28;20046;-38
2022/03/12 08:15:51;;;;;;;12.50;6.05;;;;;;;;;;4992913;28;20038;-38
2022/03/12 08:18:18;;;;;;;14.70;5.93;;;;;;;;;;4993558;28;20424;-37
2022/03/12 08:20:45;;;;;;;12.88;6.50;;;;;;;;;;4992773;28;20500;-37
2022/03/12 08:23:12;;;;;;;14.27;6.55;;;;;;;;;;4975506;28;20046;-37
2022/03/12 08:25:39;;;;;;;13.35;5.45;;;;;;;;;;4993122;28;20057;-38
2022/03/12 08:28:06;;;;;;;12.57;6.15;;;;;;;;;;4992779;28;20030;-38
2022/03/12 08:30:35;;;;;;;11.90;6.18;;;;;;;;;;4993230;28;20053;-37
2022/03/12 08:33:02;;;;;;;14.50;5.35;;;;;;;;;;4992756;28;20050;-37
2022/03/12 08:35:29;;;;;;;12.38;6.03;;;;;;;;;;4994405;28;20026;-37
2022/03/12 08:37:56;;;;;;;14.23;5.78;;;;;;;;;;4993911;28;20045;-38
2022/03/12 08:40:25;;;;;;;12.93;5.63;;;;;;;;;;4992638;28;20027;-38
2022/03/12 08:42:53;;;;;;;11.48;5.88;;;;;;;;;;4992951;28;20034;-38
2022/03/12 08:45:20;;;;;;;14.55;5.78;;;;;;;;;;4992523;28;20536;-37
2022/03/12 08:47:47;;;;;;;13.63;5.38;;;;;;;;;;4992752;28;20105;-37
2022/03/12 08:50:14;;;;;;;11.07;5.45;;;;;;;;;;4992856;28;20197;-37
2022/03/12 08:52:42;;;;;;;11.27;5.22;;;;;;;;;;4992467;28;20507;-38
2022/03/12 08:55:10;;;;;;;11.05;4.72;;;;;;;;;;4993094;28;20031;-37
2022/03/12 08:57:37;;;;;;;10.15;5.25;;;;;;;;;;4992502;28;20034;-38
2022/03/12 09:00:05;;;;;;;11.13;5.30;;;;;;;;;;4992808;28;20493;-38
2022/03/12 09:02:34;;;;;;;11.90;4.55;;;;;;;;;;4992606;28;20076;-37
2022/03/12 09:05:04;;;;;;;10.30;4.60;;;;;;;;;;4992549;28;20030;-37
2022/03/12 09:07:31;;;;;;;7.20;4.07;;;;;;;;;;4992767;28;20026;-37
2022/03/12 09:09:58;;;;;;;10.70;4.90;;;;;;;;;;4992351;28;20037;-37
2022/03/12 09:12:25;;;;;;;10.38;4.00;;;;;;;;;;4992691;28;20117;-37
2022/03/12 09:14:53;;;;;;;10.48;4.40;;;;;;;;;;4992832;28;20030;-37
2022/03/12 09:17:20;;;;;;;8.75;4.00;;;;;;;;;;4992172;28;20058;-38
2022/03/12 09:19:47;;;;;;;8.48;4.38;;;;;;;;;;4992322;28;20089;-37
2022/03/12 09:22:14;;;;;;;10.25;4.40;;;;;;;;;;4992519;28;20038;-37
2022/03/12 09:24:41;;;;;;;9.55;4.25;;;;;;;;;;4992507;28;20038;-37
2022/03/12 09:27:08;;;;;;;8.07;3.67;;;;;;;;;;4992463;28;20053;-38
2022/03/12 09:29:36;;;;;;;8.00;4.05;;;;;;;;;;4992093;28;20081;-38
2022/03/12 09:32:05;;;;;;;8.13;4.22;;;;;;;;;;4992004;28;20453;-38
2022/03/12 09:34:34;;;;;;;9.93;4.65;;;;;;;;;;4992461;28;20133;-36
2022/03/12 09:37:02;;;;;;;13.07;4.93;;;;;;;;;;4974908;28;20121;-36
2022/03/12 09:39:30;;;;;;;14.68;4.03;;;;;;;;;;4992366;28;20041;-36
2022/03/12 09:41:57;;;;;;;8.75;4.47;;;;;;;;;;4992348;28;20045;-36
2022/03/12 09:44:24;;;;;;;8.90;4.65;;;;;;;;;;4974198;28;20451;-36
2022/03/12 09:46:51;;;;;;;8.23;4.32;;;;;;;;;;4992623;28;20022;-36
2022/03/12 09:49:18;;;;;;;10.57;5.20;;;;;;;;;;4992411;28;20076;-36
2022/03/12 09:51:45;;;;;;;9.70;4.75;;;;;;;;;;4991800;28;20015;-36
2022/03/12 09:54:13;;;;;;;9.75;4.90;;;;;;;;;;4992756;28;20428;-36
2022/03/12 09:56:40;;;;;;;10.98;5.00;;;;;;;;;;4991783;28;20080;-36
2022/03/12 09:59:07;;;;;;;12.05;5.68;;;;;;;;;;4994316;28;20026;-36
2022/03/12 10:01:34;;;;;;;10.65;5.55;;;;;;;;;;4996091;28;20106;-36
2022/03/12 10:04:01;;;;;;;10.40;5.38;;;;;;;;;;4995278;28;20034;-36
2022/03/12 10:06:31;;;;;;;14.88;6.15;;;;;;;;;;4996069;28;20034;-36
2022/03/12 10:08:58;;;;;;;13.10;5.70;;;;;;;;;;4995280;28;20053;-36
2022/03/12 10:11:26;;;;;;;12.07;5.63;;;;;;;;;;4996059;28;20511;-36
2022/03/12 10:13:53;;;;;;;12.88;6.03;;;;;;;;;;4995829;28;20405;-36
2022/03/12 10:16:20;;;;;;;10.75;5.28;;;;;;;;;;4995117;28;20030;-36
2022/03/12 10:18:47;;;;;;;13.52;6.60;;;;;;;;;;4995815;28;20045;-36
2022/03/12 10:21:15;;;;;;;12.18;5.20;;;;;;;;;;4995072;28;20031;-36
2022/03/12 10:23:42;;;;;;;13.98;5.70;;;;;;;;;;4995581;28;20124;-36
2022/03/12 10:26:09;;;;;;;10.70;6.03;;;;;;;;;;4995417;28;20448;-37
2022/03/12 10:28:36;;;;;;;13.05;5.95;;;;;;;;;;4995066;28;20541;-36
2022/03/12 10:31:09;;;;;;;13.88;5.88;;;;;;;;;;4995835;28;20141;-37
2022/03/12 10:33:37;;;;;;;14.88;5.55;;;;;;;;;;4994993;28;20559;-37
2022/03/12 10:36:11;;;;;;;14.55;5.68;;;;;;;;;;4995717;28;20026;-37
2022/03/12 10:38:39;;;;;;;14.48;6.22;;;;;;;;;;4994371;28;20451;-39
2022/03/12 10:41:06;;;;;;;15.05;5.50;;;;;;;;;;4995219;28;20026;-38
2022/03/12 10:43:43;;;;;;;16.63;6.45;;;;;;;;;;4994264;28;20106;-37
2022/03/12 10:46:10;;;;;;;14.30;5.53;;;;;;;;;;4989988;28;20093;-37
2022/03/12 10:48:40;;;;;;;10.63;5.30;;;;;;;;;;4975505;28;20026;-43
2022/03/12 10:51:07;;;;;;;9.98;5.28;;;;;;;;;;4975042;28;20038;-38
2022/03/12 10:53:36;;;;;;;11.73;5.25;;;;;;;;;;4975904;28;20480;-37
2022/03/12 10:56:07;;;;;;;13.30;4.97;;;;;;;;;;4976859;28;20066;-37
2022/03/12 10:58:34;;;;;;;13.98;5.40;;;;;;;;;;4980744;28;20069;-38
2022/03/12 11:01:03;;;;;;;12.07;4.45;;;;;;;;;;4984886;28;20492;-37
2022/03/12 11:03:34;;;;;;;10.00;4.65;;;;;;;;;;4983234;28;20062;-37
2022/03/12 11:06:02;;;;;;;7.57;4.15;;;;;;;;;;4982421;28;20058;-38
2022/03/12 11:08:29;;;;;;;13.40;4.80;;;;;;;;;;4983288;28;20029;-44
2022/03/12 11:11:00;;;;;;;11.75;4.10;;;;;;;;;;4984960;28;20046;-43
2022/03/12 11:13:40;;;;;;;7.18;3.67;;;;;;;;;;4994098;28;20039;-43
2022/03/12 11:16:33;;;;;;;10.27;3.90;;;;;;;;;;4993767;28;20041;-45
2022/03/12 11:19:07;;;;;;;7.53;3.58;;;;;;;;;;4986193;28;20066;-44
2022/03/12 11:21:37;;;;;;;6.93;3.50;;;;;;;;;;4995148;28;20026;-46
2022/03/12 11:24:06;;;;;;;10.45;3.42;;;;;;;;;;4988974;28;20091;-44
2022/03/12 11:26:44;;;;;;;6.80;3.08;;;;;;;;;;4983280;28;20035;-45
2022/03/12 11:29:13;;;;;;;8.00;2.80;;;;;;;;;;4979389;28;20034;-45
2022/03/12 11:31:49;;;;;;;10.27;2.97;;;;;;;;;;4979307;28;20097;-48
2022/03/12 11:34:20;;;;;;;5.63;2.88;;;;;;;;;;4992501;28;20042;-36
2022/03/12 11:36:48;;;;;;;7.28;3.47;;;;;;;;;;4988173;28;20400;-35
2022/03/12 11:39:19;;;;;;;7.88;3.00;;;;;;;;;;4993145;28;20030;-36
2022/03/12 11:42:00;;;;;;;6.95;2.78;;;;;;;;;;4984550;28;20035;-37
2022/03/12 11:44:28;;;;;;;10.57;2.95;;;;;;;;;;4981969;28;20027;-36
2022/03/12 11:46:56;;;;;;;7.78;2.58;;;;;;;;;;4966519;28;20125;-33
2022/03/12 11:49:24;;;;;;;10.80;2.80;;;;;;;;;;4966802;28;20045;-34
2022/03/12 11:51:52;;;;;;;6.72;2.00;;;;;;;;;;4980943;28;20066;-34
2022/03/12 11:54:20;;;;;;;6.50;2.30;;;;;;;;;;4977767;28;20055;-33
2022/03/12 11:56:47;;;;;;;10.63;2.75;;;;;;;;;;4973978;28;20033;-34
2022/03/12 11:59:14;;;;;;;6.75;2.20;;;;;;;;;;4976069;28;20485;-33
2022/03/12 12:01:41;;;;;;;10.65;2.45;;;;;;;;;;4981402;28;20117;-32
2022/03/12 12:04:08;;;;;;;6.10;2.00;;;;;;;;;;4977596;28;20444;-33
2022/03/12 12:06:36;;;;;;;14.15;2.25;;;;;;;;;;4980016;28;20034;-45
2022/03/12 12:09:03;;;;;;;10.75;2.35;;;;;;;;;;4981406;28;20046;-46
2022/03/12 12:11:34;;;;;;;13.20;2.35;;;;;;;;;;4982372;28;20125;-37
2022/03/12 12:14:01;;;;;;;7.40;1.85;;;;;;;;;;4983592;28;20042;-40
2022/03/12 12:16:29;;;;;;;12.30;2.30;;;;;;;;;;4976821;28;20037;-35
2022/03/12 12:18:56;;;;;;;7.50;2.05;;;;;;;;;;4974677;28;20480;-35
2022/03/12 12:21:23;;;;;;;15.07;2.00;;;;;;;;;;4983393;28;20424;-36
2022/03/12 12:23:50;;;;;;;11.18;1.65;;;;;;;;;;4991115;28;20041;-35
2022/03/12 12:26:17;;;;;;;9.13;1.83;;;;;;;;;;4993128;28;20088;-35
2022/03/12 12:28:51;;;;;;;9.75;1.60;;;;;;;;;;4982849;28;20034;-34
2022/03/12 12:31:25;;;;;;;15.48;1.55;;;;;;;;;;4973174;28;20058;-43
2022/03/12 12:33:53;;;;;;;12.50;1.85;;;;;;;;;;4972838;28;20038;-39
2022/03/12 12:36:23;;;;;;;9.00;1.55;;;;;;;;;;4972859;28;20042;-40
2022/03/12 12:39:09;;;;;;;10.10;1.70;;;;;;;;;;4973655;28;20039;-38
2022/03/12 12:41:52;;;;;;;14.02;1.50;;;;;;;;;;4972814;28;20038;-36
2022/03/12 12:44:18;;;;;;;;;;;;;;;;;;4991007;28;20092;-37
2022/03/12 12:46:46;;;;;;;10.73;1.65;;;;;;;;;;4992312;28;19910;-36
2022/03/12 12:49:16;;;;;;;13.02;1.55;;;;;;;;;;4982333;28;20031;-47
2022/03/12 12:51:51;;;;;;;5.55;1.48;;;;;;;;;;4980646;28;20433;-47
2022/03/12 12:54:29;;;;;;;16.67;1.95;;;;;;;;;;4979054;28;20038;-46
2022/03/12 12:57:00;;;;;;;13.60;1.77;;;;;;;;;;4978663;28;20034;-45
2022/03/12 12:59:41;;;;;;;18.10;1.88;;;;;;;;;;4976759;28;20042;-47
2022/03/12 13:02:08;;;;;;;15.77;2.20;;;;;;;;;;4972558;28;20050;-47
2022/03/12 13:04:48;;;;;;;13.65;1.90;;;;;;;;;;4977990;28;20049;-47
2022/03/12 13:07:22;;;;;;;8.90;2.13;;;;;;;;;;4972098;28;20039;-48
2022/03/12 13:09:49;;;;;;;11.95;2.08;;;;;;;;;;4972218;28;20038;-45
2022/03/12 13:12:17;;;;;;;12.80;1.80;;;;;;;;;;4972743;28;20065;-45
2022/03/12 13:14:45;;;;;;;17.13;1.60;;;;;;;;;;4972805;28;20035;-45
2022/03/12 13:17:31;;;;;;;20.50;1.95;;;;;;;;;;4973434;28;20026;-38
2022/03/12 13:19:59;;;;;;;15.55;2.00;;;;;;;;;;4972359;28;20162;-37
2022/03/12 13:22:36;;;;;;;18.88;1.83;;;;;;;;;;4972053;28;20034;-39
2022/03/12 13:25:06;;;;;;;18.42;1.77;;;;;;;;;;4972146;28;20434;-40
2022/03/12 13:27:34;;;;;;;17.77;1.85;;;;;;;;;;4971651;28;20038;-38
2022/03/12 13:30:15;;;;;;;10.73;1.70;;;;;;;;;;4971493;28;20034;-33
2022/03/12 13:32:43;;;;;;;15.27;1.73;;;;;;;;;;4973158;28;20109;-36
2022/03/12 13:35:12;;;;;;;10.13;1.60;;;;;;;;;;4977110;28;20038;-35
2022/03/12 13:37:42;;;;;;;15.55;1.65;;;;;;;;;;4987748;28;20038;-48
2022/03/12 13:40:12;;;;;;;10.93;1.38;;;;;;;;;;4995552;28;20034;-45
2022/03/12 13:42:41;;;;;;;27.58;1.83;;;;;;;;;;4994841;28;20042;-45
2022/03/12 13:45:09;;;;;;;13.10;1.25;;;;;;;;;;4995946;28;20790;-44
2022/03/12 13:47:36;;;;;;;10.32;1.45;;;;;;;;;;4993867;28;20100;-46
2022/03/12 13:50:03;;;;;;;22.15;2.00;;;;;;;;;;4995323;28;20377;-44
2022/03/12 13:52:30;;;;;;;12.27;1.67;;;;;;;;;;4995310;28;20035;-44
2022/03/12 13:55:05;;;;;;;17.52;1.92;;;;;;;;;;4995367;28;20037;-44
2022/03/12 13:57:35;;;;;;;12.35;1.95;;;;;;;;;;4995138;28;20408;-44
2022/03/12 14:00:09;;;;;;;13.52;1.42;;;;;;;;;;4987704;28;20027;-44
2022/03/12 14:02:45;;;;;;;13.82;1.88;;;;;;;;;;4975920;28;20378;-42
2022/03/12 14:05:20;;;;;;;12.02;1.63;;;;;;;;;;4975110;28;20085;-43
2022/03/12 14:07:46;;;;;;;19.98;2.05;;;;;;;;;;4975161;28;20027;-45
2022/03/12 14:10:14;;;;;;;16.20;1.67;;;;;;;;;;4974232;28;20035;-45
2022/03/12 14:12:41;;;;;;;16.98;2.00;;;;;;;;;;4957990;28;20392;-48
2022/03/12 14:15:11;;;;;;;17.00;2.00;;;;;;;;;;4975938;28;20081;-47
2022/03/12 14:17:45;;;;;;;16.10;1.98;;;;;;;;;;4974953;28;20035;-35
2022/03/12 14:20:12;;;;;;;22.42;1.80;;;;;;;;;;4974706;28;20035;-37
2022/03/12 14:22:41;;;;;;;20.50;1.75;;;;;;;;;;4958278;28;20046;-37
2022/03/12 14:25:08;;;;;;;14.60;2.00;;;;;;;;;;4974154;28;20050;-37
2022/03/12 14:27:36;;;;;;;10.30;1.50;;;;;;;;;;4975733;28;20058;-36
2022/03/12 14:30:05;;;;;;;10.88;1.52;;;;;;;;;;4974834;28;20034;-35
2022/03/12 14:32:32;;;;;;;18.25;1.90;;;;;;;;;;4974997;28;20055;-34
2022/03/12 14:34:59;;;;;;;13.55;1.88;;;;;;;;;;4975176;28;20062;-34
2022/03/12 14:37:26;;;;;;;17.38;1.85;;;;;;;;;;4975112;28;20050;-36